Asmara air port



Baixar 11,22 Kb.
Encontro15.09.2018
Tamanho11,22 Kb.
ASMARA AIR PORT

TAF HHAS 230400Z 2306/2406 30010KT 9999 FEW020

BECMG 2312/2315 SCT025

BECMG 2318/2321 06006KT 9/9 FEW010=


TAF HHAS 222200Z 2300/2400 VRB03KT 9999 SCT060

BECMG 2306/2309 30010KT 9999 FEW020

BECMG 2312/2315 SCT025=


TAF HHAS 221500Z 2218/2318 27008KT CAVUK

BECMG 2306/2309 08010KT 9999 FEW020

BECMG 2312/2315 FEW010=


TAF HHAS 220400Z 2206/2306 11010KT 9/9 FEW010 FEW025 TEMPO2211/2215

18012KT SCT025 BECMG2218/2221 08006KT FEW010 FEW025 BECMG2300/2303

VRB05KT CAVOK=


TAF HHAS 210400Z 2106/2206 08010KT SCT010

TEMPO 2110/2115 06012KT 9999 SCT020

BECMG 2118/2121 09008KT 9/9 SCT010=


TAF HHAS 202200Z 2100/2200 08010KT 1000 FG FEW010

BECMG 2106/2109 06012KT 9999 FEW010

BECMG 212/2115 SCT020=


TAF HHAS 201500Z 2018/2118 09006KT 8000 SCT008

PROB20 TEMPO 2022/2104 2000 FG

BECMG 2106/2109 06012KT 9999 FEW010

BECMG 212/2115 SCT020=



TAF HHAS 200400Z 2006/2106 08010KT B9/9 SCT015

TEMPO 2010/2015 TS/RA FEW020CB SCT025

BECMG 20218/2021 06010KT 9/9 SCT010=


TAF HHAS 192200Z 2000/2100 06008KT CAVOK

BECMG 2006/2009 34008KT

TEMPO 2010/2015 30010G20KT 9/9 FEW020CB SCT025=


TAF HHAS 191500Z 1918/2018 CAVOK BECMG2006/2009 25010KT BECMG2012/2015

27010G20KT 9999 FEW020=



TAF HHAS 190400Z 1906/2006 26014KT 9/9 FEW025 TEMPO1912/1915 SCT025

BECMG2000/2003 00000KT CAVOK=



TAF HHAS 181500Z 1818/1918 28010KT CAVOK

BECMG 1900/1904 00000KT=



TAF HHAS 1812/1912 26010G20KT CAVOK

BECMG 1818/1821 06006KT CAVOK

BECMG 1906/1909 28010G20KT CAVOK=


TAF HHAS 171000 1812/1912 26010G20KT CAVOK

BECMG 1818/1821 06006KT CAVOK

BECMG 1906/1909 28010G20KT CAVOK=


TAF HHAS 180400Z 1806/1906 15006KT CAVOK

TEMPO 1810/1815 26010G20KT 9/9 FEW025

BECMG 1818/1821 VRB03KT CAVOK=


TAF HHAS 171500Z 1718/1818 06004KT CAVOK

BECMG 1808/18// 25018KT FEW030=



TAF HHAS 171000Z 1712/1812 26010G20KT CAVOK

BECMG 1718/1721 06006KT CAVOK

BECMG 1806/1809 28010KT CAVOK=


TAF HHAS 170400Z 1706/1806 09010KT 9/9 FEW010 FEW025 TEMPO1711/1715

25012KT SCT025 BECMG1718/1721 08008KT 9/9 FEW025 BECMG1800/1803



00000KT CAVOK=


©bemvin.org 2016
enviar mensagem

    Página principal